Create Tblcommutelog Verified Points Advance Search
| # | Trip ID | Id Commuter | Trip Date | Trip Num | Current Lat | Current Lng | Delta Distance | Current Time | Activity | Activity Confidence | Current Speed | |
|---|---|---|---|---|---|---|---|---|---|---|---|---|
| 72601 | 250507_679555_16500693_0830 | 679555 | (not set) | (not set) | 38.79366775626 | -77.202721497321 | 4.8734 | 2025-05-07 12:39:54.311 | in_vehicle | 100 | 11.913596252023 | |
| 72602 | 250507_780856_6461772_0825 | 780856 | (not set) | (not set) | 38.927424592243 | -77.109674747497 | 2.7719 | 2025-05-07 12:39:54.436 | on_bicycle | 100 | 3.5941956422613 | |
| 72603 | 250507_781006_16465159_0835 | 781006 | (not set) | (not set) | 38.8872129 | -76.9838361 | 0.4053 | 2025-05-07 12:39:55.393 | on_bicycle | 100 | 1.7434531100521 | |
| 72604 | 250507_766075_16507806_0755 | 766075 | (not set) | (not set) | 38.895199942055 | -77.053325167144 | 20.1814 | 2025-05-07 12:39:55.637 | in_vehicle | 100 | 1.9714431321359 | |
| 72605 | 250507_784414_16503658_0807 | 784414 | (not set) | (not set) | 38.901101275582 | -77.040236307958 | 11.6969 | 2025-05-07 12:39:58.414 | in_vehicle | 100 | -0.44703925898772 | |
| 72606 | 250507_783145_6419315_0814 | 783145 | (not set) | (not set) | 39.121101383333 | -77.01145935 | 13.37 | 2025-05-07 12:39:58.566 | in_vehicle | 100 | 8.2121111876045 | |
| 72607 | 250507_781475_6438355_0834 | 781475 | (not set) | (not set) | 39.044937892496 | -77.111365067082 | 1.0263 | 2025-05-07 12:40:01.32 | in_vehicle | 100 | 4.1351131456364 | |
| 72608 | 250507_769783_16441814_0754 | 769783 | (not set) | (not set) | 38.950917359998 | -77.001724143979 | 11.1555 | 2025-05-07 12:40:04.476 | in_vehicle | 100 | 2.9057551834202 | |
| 72609 | 250507_784414_16503658_0807 | 784414 | (not set) | (not set) | 38.901323360163 | -77.04046438993 | 11.6969 | 2025-05-07 12:40:05.525 | in_vehicle | 100 | -0.44703925898772 | |
| 72610 | 250507_753800_6439769_0820 | 753800 | (not set) | (not set) | 38.897514492601 | -76.998433997027 | 2.6403 | 2025-05-07 12:40:05.554 | on_bicycle | 100 | 1.9088576358776 | |
| 72611 | 250507_773187_16479639_0828 | 773187 | (not set) | (not set) | 38.916869468349 | -77.027780800888 | 0.4454 | 2025-05-07 12:40:05.667 | on_foot | 100 | -0.44703925898772 | |
| 72612 | 250507_679555_16500693_0830 | 679555 | (not set) | (not set) | 38.794911787116 | -77.199499275554 | 5.0674 | 2025-05-07 12:40:06.22 | in_vehicle | 100 | 11.743721333608 | |
| 72613 | 250507_782033_16456978_0839 | 782033 | (not set) | (not set) | 39.1576572 | -77.0878134 | 0 | 2025-05-07 12:40:07.089 | in_vehicle | 100 | 5.1588330487183 | |
| 72614 | 250507_770164_16511074_0758 | 770164 | (not set) | (not set) | 38.883782962014 | -77.228111025621 | 9.7886 | 2025-05-07 12:40:09.238 | in_vehicle | 100 | 3.0443373537064 | |
| 72615 | 250507_782033_16456978_0839 | 782033 | (not set) | (not set) | 39.1588022 | -77.0847616 | 0.1819 | 2025-05-07 12:40:09.373 | in_vehicle | 100 | 0.36210179978006 | |
| 72616 | 250507_752246_16512995_0749 | 752246 | (not set) | (not set) | 38.889607863171 | -77.028174939774 | 13.2989 | 2025-05-07 12:40:09.61 | on_foot | 100 | -0.44703925898772 | |
| 72617 | 250507_752246_16512995_0749 | 752246 | (not set) | (not set) | 38.892183569645 | -77.029568642691 | 13.2989 | 2025-05-07 12:40:09.616 | on_foot | 100 | -0.44703925898772 | |
| 72618 | 250507_752246_16512995_0749 | 752246 | (not set) | (not set) | 38.889498326336 | -77.027806072238 | 13.2989 | 2025-05-07 12:40:10.122 | on_foot | 100 | -0.44703925898772 | |
| 72619 | 250507_766075_16507806_0755 | 766075 | (not set) | (not set) | 38.895719812692 | -77.052337426093 | 20.2456 | 2025-05-07 12:40:10.196 | in_vehicle | 100 | 2.9102255760101 | |
| 72620 | 250507_780810_6461772_0759 | 780810 | (not set) | (not set) | 39.003890028161 | -77.073959249983 | 3.4666 | 2025-05-07 12:40:10.203 | on_bicycle | 100 | 2.6554131983871 |